sensor_id;sensor_type;location;lat;lon;timestamp;P1;durP1;ratioP1;P2;durP2;ratioP2
70045;SDS011;57385;41.832;23.494;2022-09-03T00:00:16;13.40;;;10.85;;
70045;SDS011;57385;41.832;23.494;2022-09-03T00:00:38;14.15;;;10.48;;
70045;SDS011;57385;41.832;23.494;2022-09-03T00:01:00;15.63;;;10.90;;
70045;SDS011;57385;41.832;23.494;2022-09-03T00:01:27;15.77;;;10.65;;
70045;SDS011;57385;41.832;23.494;2022-09-03T00:01:56;13.27;;;10.55;;
70045;SDS011;57385;41.832;23.494;2022-09-03T00:02:46;14.25;;;10.75;;
70045;SDS011;57385;41.832;23.494;2022-09-03T00:04:07;13.65;;;10.48;;
70045;SDS011;57385;41.832;23.494;2022-09-03T00:06:11;12.13;;;10.80;;
70045;SDS011;57385;41.832;23.494;2022-09-03T00:06:35;11.95;;;10.45;;
70045;SDS011;57385;41.832;23.494;2022-09-03T00:07:05;13.52;;;10.50;;
70045;SDS011;57385;41.832;23.494;2022-09-03T00:07:38;15.85;;;10.90;;
70045;SDS011;57385;41.832;23.494;2022-09-03T00:08:09;14.05;;;10.65;;
70045;SDS011;57385;41.832;23.494;2022-09-03T00:08:41;13.93;;;10.70;;
70045;SDS011;57385;41.832;23.494;2022-09-03T00:09:08;15.27;;;10.90;;
70045;SDS011;57385;41.832;23.494;2022-09-03T00:09:35;11.70;;;10.48;;
70045;SDS011;57385;41.832;23.494;2022-09-03T00:10:02;13.00;;;10.63;;
70045;SDS011;57385;41.832;23.494;2022-09-03T00:11:00;12.27;;;10.93;;
70045;SDS011;57385;41.832;23.494;2022-09-03T00:11:23;15.57;;;10.00;;
70045;SDS011;57385;41.832;23.494;2022-09-03T00:12:31;12.65;;;10.05;;
70045;SDS011;57385;41.832;23.494;2022-09-03T00:12:55;12.32;;;10.75;;
70045;SDS011;57385;41.832;23.494;2022-09-03T00:13:22;11.77;;;10.52;;
70045;SDS011;57385;41.832;23.494;2022-09-03T00:14:42;10.80;;;9.70;;
70045;SDS011;57385;41.832;23.494;2022-09-03T00:15:09;12.52;;;10.52;;
70045;SDS011;57385;41.832;23.494;2022-09-03T00:15:30;12.20;;;10.43;;
70045;SDS011;57385;41.832;23.494;2022-09-03T00:15:52;11.25;;;10.02;;
70045;SDS011;57385;41.832;23.494;2022-09-03T00:16:15;12.90;;;10.07;;
70045;SDS011;57385;41.832;23.494;2022-09-03T00:16:43;10.88;;;9.63;;
70045;SDS011;57385;41.832;23.494;2022-09-03T00:18:17;13.43;;;10.20;;
70045;SDS011;57385;41.832;23.494;2022-09-03T00:18:47;12.82;;;10.93;;
70045;SDS011;57385;41.832;23.494;2022-09-03T00:19:10;12.15;;;10.20;;
70045;SDS011;57385;41.832;23.494;2022-09-03T00:19:36;11.60;;;10.38;;
70045;SDS011;57385;41.832;23.494;2022-09-03T00:20:02;10.57;;;9.48;;
70045;SDS011;57385;41.832;23.494;2022-09-03T00:20:32;13.32;;;9.70;;
70045;SDS011;57385;41.832;23.494;2022-09-03T00:21:05;12.77;;;10.23;;
70045;SDS011;57385;41.832;23.494;2022-09-03T00:21:46;11.07;;;9.88;;
70045;SDS011;57385;41.832;23.494;2022-09-03T00:22:13;12.45;;;9.80;;
70045;SDS011;57385;41.832;23.494;2022-09-03T00:22:50;12.20;;;9.73;;
70045;SDS011;57385;41.832;23.494;2022-09-03T00:23:14;11.60;;;9.52;;
70045;SDS011;57385;41.832;23.494;2022-09-03T00:23:39;10.57;;;9.52;;
70045;SDS011;57385;41.832;23.494;2022-09-03T00:24:00;10.73;;;9.73;;
70045;SDS011;57385;41.832;23.494;2022-09-03T00:24:24;11.02;;;9.65;;
70045;SDS011;57385;41.832;23.494;2022-09-03T00:24:49;12.60;;;10.02;;
70045;SDS011;57385;41.832;23.494;2022-09-03T00:25:11;13.60;;;10.20;;
70045;SDS011;57385;41.832;23.494;2022-09-03T00:26:32;11.55;;;9.90;;
70045;SDS011;57385;41.832;23.494;2022-09-03T00:26:54;11.60;;;10.40;;
70045;SDS011;57385;41.832;23.494;2022-09-03T00:27:22;11.18;;;9.88;;
70045;SDS011;57385;41.832;23.494;2022-09-03T00:27:46;11.73;;;9.57;;
70045;SDS011;57385;41.832;23.494;2022-09-03T00:28:18;10.38;;;9.18;;
70045;SDS011;57385;41.832;23.494;2022-09-03T00:28:44;11.98;;;10.65;;
70045;SDS011;57385;41.832;23.494;2022-09-03T00:29:27;12.73;;;10.43;;
70045;SDS011;57385;41.832;23.494;2022-09-03T00:29:57;13.60;;;10.73;;
70045;SDS011;57385;41.832;23.494;2022-09-03T00:30:20;11.77;;;10.05;;
70045;SDS011;57385;41.832;23.494;2022-09-03T00:30:40;11.63;;;10.40;;
70045;SDS011;57385;41.832;23.494;2022-09-03T00:31:44;11.95;;;10.75;;
70045;SDS011;57385;41.832;23.494;2022-09-03T00:32:13;14.10;;;10.75;;
70045;SDS011;57385;41.832;23.494;2022-09-03T00:33:02;12.40;;;10.40;;
70045;SDS011;57385;41.832;23.494;2022-09-03T00:33:28;12.57;;;10.85;;
70045;SDS011;57385;41.832;23.494;2022-09-03T00:33:50;13.30;;;10.57;;
70045;SDS011;57385;41.832;23.494;2022-09-03T00:34:20;11.88;;;10.55;;
70045;SDS011;57385;41.832;23.494;2022-09-03T00:34:45;11.70;;;10.50;;
70045;SDS011;57385;41.832;23.494;2022-09-03T00:35:13;15.48;;;11.18;;
70045;SDS011;57385;41.832;23.494;2022-09-03T00:35:43;13.18;;;10.77;;
70045;SDS011;57385;41.832;23.494;2022-09-03T00:36:14;12.05;;;10.85;;
70045;SDS011;57385;41.832;23.494;2022-09-03T00:36:42;12.60;;;11.30;;
70045;SDS011;57385;41.832;23.494;2022-09-03T00:37:03;12.60;;;10.85;;
70045;SDS011;57385;41.832;23.494;2022-09-03T00:37:23;13.32;;;10.95;;
70045;SDS011;57385;41.832;23.494;2022-09-03T00:37:42;11.43;;;10.33;;
70045;SDS011;57385;41.832;23.494;2022-09-03T00:38:02;11.30;;;10.13;;
70045;SDS011;57385;41.832;23.494;2022-09-03T00:38:23;11.70;;;10.10;;
70045;SDS011;57385;41.832;23.494;2022-09-03T00:38:43;12.40;;;10.27;;
70045;SDS011;57385;41.832;23.494;2022-09-03T00:39:02;11.80;;;10.18;;
70045;SDS011;57385;41.832;23.494;2022-09-03T00:39:23;11.68;;;10.43;;
70045;SDS011;57385;41.832;23.494;2022-09-03T00:39:44;14.65;;;10.30;;
70045;SDS011;57385;41.832;23.494;2022-09-03T00:40:04;11.33;;;10.07;;
70045;SDS011;57385;41.832;23.494;2022-09-03T00:45:56;11.00;;;9.27;;
70045;SDS011;57385;41.832;23.494;2022-09-03T00:46:50;11.30;;;8.70;;
70045;SDS011;57385;41.832;23.494;2022-09-03T00:48:17;10.00;;;8.82;;
70045;SDS011;57385;41.832;23.494;2022-09-03T00:51:52;12.32;;;8.18;;
70045;SDS011;57385;41.832;23.494;2022-09-03T00:52:26;9.18;;;8.18;;
70045;SDS011;57385;41.832;23.494;2022-09-03T00:56:33;11.65;;;8.20;;
70045;SDS011;57385;41.832;23.494;2022-09-03T01:00:07;12.07;;;9.02;;
70045;SDS011;57385;41.832;23.494;2022-09-03T01:00:33;11.60;;;8.32;;
70045;SDS011;57385;41.832;23.494;2022-09-03T01:00:53;12.52;;;8.63;;
70045;SDS011;57385;41.832;23.494;2022-09-03T01:01:21;13.37;;;8.97;;
70045;SDS011;57385;41.832;23.494;2022-09-03T01:01:57;9.60;;;8.63;;
70045;SDS011;57385;41.832;23.494;2022-09-03T01:04:07;10.40;;;8.38;;
70045;SDS011;57385;41.832;23.494;2022-09-03T01:04:57;12.07;;;8.80;;
70045;SDS011;57385;41.832;23.494;2022-09-03T01:06:21;11.75;;;9.20;;
70045;SDS011;57385;41.832;23.494;2022-09-03T01:09:01;10.15;;;8.93;;
70045;SDS011;57385;41.832;23.494;2022-09-03T01:09:34;10.13;;;9.02;;
70045;SDS011;57385;41.832;23.494;2022-09-03T01:10:56;13.68;;;9.07;;
70045;SDS011;57385;41.832;23.494;2022-09-03T01:12:17;10.73;;;9.07;;
70045;SDS011;57385;41.832;23.494;2022-09-03T01:13:36;10.65;;;9.35;;
70045;SDS011;57385;41.832;23.494;2022-09-03T01:15:15;14.10;;;9.48;;
70045;SDS011;57385;41.832;23.494;2022-09-03T01:17:00;12.20;;;9.32;;
70045;SDS011;57385;41.832;23.494;2022-09-03T01:17:36;11.75;;;9.70;;
70045;SDS011;57385;41.832;23.494;2022-09-03T01:18:14;12.27;;;9.50;;
70045;SDS011;57385;41.832;23.494;2022-09-03T01:19:04;12.38;;;9.60;;
70045;SDS011;57385;41.832;23.494;2022-09-03T01:20:02;12.50;;;10.68;;
70045;SDS011;57385;41.832;23.494;2022-09-03T01:20:48;12.65;;;11.43;;
70045;SDS011;57385;41.832;23.494;2022-09-03T01:25:02;16.65;;;11.63;;
70045;SDS011;57385;41.832;23.494;2022-09-03T01:25:48;14.60;;;11.75;;
70045;SDS011;57385;41.832;23.494;2022-09-03T01:27:43;13.85;;;11.20;;
70045;SDS011;57385;41.832;23.494;2022-09-03T01:28:59;13.10;;;11.57;;
70045;SDS011;57385;41.832;23.494;2022-09-03T01:29:47;13.72;;;11.90;;
70045;SDS011;57385;41.832;23.494;2022-09-03T01:30:12;13.80;;;11.75;;
70045;SDS011;57385;41.832;23.494;2022-09-03T01:30:35;13.35;;;11.95;;
70045;SDS011;57385;41.832;23.494;2022-09-03T01:31:54;17.92;;;12.40;;
70045;SDS011;57385;41.832;23.494;2022-09-03T01:32:26;14.82;;;10.88;;
70045;SDS011;57385;41.832;23.494;2022-09-03T01:33:30;12.88;;;11.10;;
70045;SDS011;57385;41.832;23.494;2022-09-03T01:34:19;12.73;;;10.90;;
70045;SDS011;57385;41.832;23.494;2022-09-03T01:35:19;14.05;;;11.00;;
70045;SDS011;57385;41.832;23.494;2022-09-03T01:35:47;11.45;;;9.95;;
70045;SDS011;57385;41.832;23.494;2022-09-03T01:36:37;15.35;;;10.70;;
70045;SDS011;57385;41.832;23.494;2022-09-03T01:39:02;10.77;;;9.63;;
70045;SDS011;57385;41.832;23.494;2022-09-03T01:39:46;12.37;;;10.77;;
70045;SDS011;57385;41.832;23.494;2022-09-03T01:44:22;12.52;;;10.10;;
70045;SDS011;57385;41.832;23.494;2022-09-03T01:45:44;14.48;;;9.50;;
70045;SDS011;57385;41.832;23.494;2022-09-03T01:46:31;15.85;;;10.27;;
70045;SDS011;57385;41.832;23.494;2022-09-03T01:47:04;11.95;;;9.70;;
70045;SDS011;57385;41.832;23.494;2022-09-03T01:48:43;11.60;;;9.45;;
70045;SDS011;57385;41.832;23.494;2022-09-03T01:49:30;13.38;;;9.50;;
70045;SDS011;57385;41.832;23.494;2022-09-03T01:50:37;11.43;;;9.70;;
70045;SDS011;57385;41.832;23.494;2022-09-03T01:51:20;12.18;;;9.00;;
70045;SDS011;57385;41.832;23.494;2022-09-03T01:51:42;12.02;;;10.05;;
70045;SDS011;57385;41.832;23.494;2022-09-03T01:52:05;12.07;;;9.53;;
70045;SDS011;57385;41.832;23.494;2022-09-03T01:53:39;10.88;;;9.68;;
70045;SDS011;57385;41.832;23.494;2022-09-03T01:54:17;14.75;;;10.32;;
70045;SDS011;57385;41.832;23.494;2022-09-03T01:54:50;13.00;;;10.77;;
70045;SDS011;57385;41.832;23.494;2022-09-03T01:56:15;15.38;;;12.13;;
70045;SDS011;57385;41.832;23.494;2022-09-03T01:57:42;16.30;;;14.65;;
70045;SDS011;57385;41.832;23.494;2022-09-03T01:58:12;18.58;;;16.55;;
70045;SDS011;57385;41.832;23.494;2022-09-03T01:58:53;21.60;;;19.25;;
70045;SDS011;57385;41.832;23.494;2022-09-03T02:00:10;26.00;;;20.85;;
70045;SDS011;57385;41.832;23.494;2022-09-03T02:00:32;21.80;;;19.40;;
70045;SDS011;57385;41.832;23.494;2022-09-03T02:00:56;21.48;;;19.02;;
70045;SDS011;57385;41.832;23.494;2022-09-03T02:01:23;20.52;;;18.30;;
70045;SDS011;57385;41.832;23.494;2022-09-03T02:01:51;19.08;;;17.08;;
70045;SDS011;57385;41.832;23.494;2022-09-03T02:02:21;18.42;;;16.10;;
70045;SDS011;57385;41.832;23.494;2022-09-03T02:02:43;17.65;;;15.82;;
70045;SDS011;57385;41.832;23.494;2022-09-03T02:03:04;17.83;;;15.82;;
70045;SDS011;57385;41.832;23.494;2022-09-03T02:03:34;20.42;;;16.13;;
70045;SDS011;57385;41.832;23.494;2022-09-03T02:03:57;17.50;;;15.38;;
70045;SDS011;57385;41.832;23.494;2022-09-03T02:04:18;18.75;;;15.98;;
70045;SDS011;57385;41.832;23.494;2022-09-03T02:04:39;19.50;;;15.63;;
70045;SDS011;57385;41.832;23.494;2022-09-03T02:05:01;20.45;;;15.73;;
70045;SDS011;57385;41.832;23.494;2022-09-03T02:05:24;23.60;;;16.25;;
70045;SDS011;57385;41.832;23.494;2022-09-03T02:05:45;20.15;;;15.20;;
70045;SDS011;57385;41.832;23.494;2022-09-03T02:06:05;22.07;;;16.07;;
70045;SDS011;57385;41.832;23.494;2022-09-03T02:06:26;21.75;;;16.40;;
70045;SDS011;57385;41.832;23.494;2022-09-03T02:06:46;19.35;;;15.73;;
70045;SDS011;57385;41.832;23.494;2022-09-03T02:07:06;19.80;;;15.85;;
70045;SDS011;57385;41.832;23.494;2022-09-03T02:07:29;21.45;;;16.42;;
70045;SDS011;57385;41.832;23.494;2022-09-03T02:08:04;18.67;;;15.65;;
70045;SDS011;57385;41.832;23.494;2022-09-03T02:08:26;22.58;;;15.95;;
70045;SDS011;57385;41.832;23.494;2022-09-03T02:08:45;21.30;;;16.33;;
70045;SDS011;57385;41.832;23.494;2022-09-03T02:09:05;20.80;;;16.43;;
70045;SDS011;57385;41.832;23.494;2022-09-03T02:09:24;19.73;;;16.20;;
70045;SDS011;57385;41.832;23.494;2022-09-03T02:09:44;19.15;;;16.70;;
70045;SDS011;57385;41.832;23.494;2022-09-03T02:10:05;20.87;;;16.80;;
70045;SDS011;57385;41.832;23.494;2022-09-03T02:11:15;21.55;;;16.92;;
70045;SDS011;57385;41.832;23.494;2022-09-03T02:11:34;20.03;;;16.10;;
70045;SDS011;57385;41.832;23.494;2022-09-03T02:11:58;21.67;;;17.02;;
70045;SDS011;57385;41.832;23.494;2022-09-03T02:12:34;21.60;;;17.20;;
70045;SDS011;57385;41.832;23.494;2022-09-03T02:12:55;20.33;;;17.05;;
70045;SDS011;57385;41.832;23.494;2022-09-03T02:13:34;22.58;;;16.55;;
70045;SDS011;57385;41.832;23.494;2022-09-03T02:13:56;20.48;;;16.08;;
70045;SDS011;57385;41.832;23.494;2022-09-03T02:14:16;20.20;;;15.90;;
70045;SDS011;57385;41.832;23.494;2022-09-03T02:14:35;20.33;;;15.82;;
70045;SDS011;57385;41.832;23.494;2022-09-03T02:14:55;20.83;;;15.67;;
70045;SDS011;57385;41.832;23.494;2022-09-03T02:15:15;22.37;;;16.30;;
70045;SDS011;57385;41.832;23.494;2022-09-03T02:15:39;19.85;;;16.17;;
70045;SDS011;57385;41.832;23.494;2022-09-03T02:16:09;21.15;;;15.82;;
70045;SDS011;57385;41.832;23.494;2022-09-03T02:16:32;19.67;;;15.40;;
70045;SDS011;57385;41.832;23.494;2022-09-03T02:16:53;21.20;;;15.88;;
70045;SDS011;57385;41.832;23.494;2022-09-03T02:17:16;20.55;;;16.00;;
70045;SDS011;57385;41.832;23.494;2022-09-03T02:17:35;18.73;;;14.83;;
70045;SDS011;57385;41.832;23.494;2022-09-03T02:17:55;18.58;;;15.18;;
70045;SDS011;57385;41.832;23.494;2022-09-03T02:18:24;19.10;;;15.27;;
70045;SDS011;57385;41.832;23.494;2022-09-03T02:18:49;17.42;;;15.27;;
70045;SDS011;57385;41.832;23.494;2022-09-03T02:19:12;18.35;;;15.07;;
70045;SDS011;57385;41.832;23.494;2022-09-03T02:19:34;20.27;;;15.57;;
70045;SDS011;57385;41.832;23.494;2022-09-03T02:19:54;16.60;;;14.40;;
70045;SDS011;57385;41.832;23.494;2022-09-03T02:20:15;15.90;;;14.02;;
70045;SDS011;57385;41.832;23.494;2022-09-03T02:20:38;19.30;;;14.18;;
70045;SDS011;57385;41.832;23.494;2022-09-03T02:20:57;20.63;;;14.18;;
70045;SDS011;57385;41.832;23.494;2022-09-03T02:21:19;18.58;;;14.30;;
70045;SDS011;57385;41.832;23.494;2022-09-03T02:21:45;16.55;;;13.70;;
70045;SDS011;57385;41.832;23.494;2022-09-03T02:22:08;16.40;;;14.02;;
70045;SDS011;57385;41.832;23.494;2022-09-03T02:22:27;18.93;;;14.17;;
70045;SDS011;57385;41.832;23.494;2022-09-03T02:22:47;18.60;;;14.37;;
70045;SDS011;57385;41.832;23.494;2022-09-03T02:23:08;19.15;;;15.02;;
70045;SDS011;57385;41.832;23.494;2022-09-03T02:23:27;17.75;;;13.93;;
70045;SDS011;57385;41.832;23.494;2022-09-03T02:23:47;16.77;;;13.40;;
70045;SDS011;57385;41.832;23.494;2022-09-03T02:24:07;18.00;;;13.35;;
70045;SDS011;57385;41.832;23.494;2022-09-03T02:24:27;15.90;;;13.73;;
70045;SDS011;57385;41.832;23.494;2022-09-03T02:24:46;17.25;;;14.43;;
70045;SDS011;57385;41.832;23.494;2022-09-03T02:25:06;18.80;;;15.10;;
70045;SDS011;57385;41.832;23.494;2022-09-03T02:25:28;17.20;;;14.35;;
70045;SDS011;57385;41.832;23.494;2022-09-03T02:25:56;17.50;;;14.27;;
70045;SDS011;57385;41.832;23.494;2022-09-03T02:26:19;15.80;;;14.15;;
70045;SDS011;57385;41.832;23.494;2022-09-03T02:26:40;16.13;;;13.95;;
70045;SDS011;57385;41.832;23.494;2022-09-03T02:27:00;17.67;;;14.68;;
70045;SDS011;57385;41.832;23.494;2022-09-03T02:27:19;18.30;;;14.90;;
70045;SDS011;57385;41.832;23.494;2022-09-03T02:27:39;17.58;;;14.93;;
70045;SDS011;57385;41.832;23.494;2022-09-03T02:27:59;16.25;;;14.38;;
70045;SDS011;57385;41.832;23.494;2022-09-03T02:28:19;15.68;;;13.77;;
70045;SDS011;57385;41.832;23.494;2022-09-03T02:28:40;17.30;;;14.40;;
70045;SDS011;57385;41.832;23.494;2022-09-03T02:29:00;18.87;;;14.90;;
70045;SDS011;57385;41.832;23.494;2022-09-03T02:29:21;18.92;;;14.55;;
70045;SDS011;57385;41.832;23.494;2022-09-03T02:29:41;19.20;;;14.98;;
70045;SDS011;57385;41.832;23.494;2022-09-03T02:30:01;19.80;;;15.15;;
70045;SDS011;57385;41.832;23.494;2022-09-03T02:30:21;19.63;;;15.52;;
70045;SDS011;57385;41.832;23.494;2022-09-03T02:30:41;19.27;;;14.60;;
70045;SDS011;57385;41.832;23.494;2022-09-03T02:31:00;17.30;;;14.07;;
70045;SDS011;57385;41.832;23.494;2022-09-03T02:31:20;19.50;;;14.43;;
70045;SDS011;57385;41.832;23.494;2022-09-03T02:31:39;18.77;;;15.18;;
70045;SDS011;57385;41.832;23.494;2022-09-03T02:31:59;17.52;;;15.38;;
70045;SDS011;57385;41.832;23.494;2022-09-03T02:32:18;17.77;;;14.37;;
70045;SDS011;57385;41.832;23.494;2022-09-03T02:32:38;17.80;;;14.40;;
70045;SDS011;57385;41.832;23.494;2022-09-03T02:32:58;18.20;;;14.20;;
70045;SDS011;57385;41.832;23.494;2022-09-03T02:33:18;17.25;;;14.55;;
70045;SDS011;57385;41.832;23.494;2022-09-03T02:33:38;17.50;;;14.37;;
70045;SDS011;57385;41.832;23.494;2022-09-03T02:34:00;18.88;;;14.73;;
70045;SDS011;57385;41.832;23.494;2022-09-03T02:34:20;19.88;;;14.32;;
70045;SDS011;57385;41.832;23.494;2022-09-03T02:34:40;18.60;;;15.00;;
70045;SDS011;57385;41.832;23.494;2022-09-03T02:35:00;18.95;;;15.10;;
70045;SDS011;57385;41.832;23.494;2022-09-03T02:35:19;18.87;;;14.70;;
70045;SDS011;57385;41.832;23.494;2022-09-03T02:35:39;18.50;;;14.98;;
70045;SDS011;57385;41.832;23.494;2022-09-03T02:35:59;18.60;;;15.35;;
70045;SDS011;57385;41.832;23.494;2022-09-03T02:36:26;17.60;;;15.23;;
70045;SDS011;57385;41.832;23.494;2022-09-03T02:36:55;18.42;;;15.25;;
70045;SDS011;57385;41.832;23.494;2022-09-03T02:37:15;17.07;;;15.00;;
70045;SDS011;57385;41.832;23.494;2022-09-03T02:37:36;17.20;;;14.70;;
70045;SDS011;57385;41.832;23.494;2022-09-03T02:37:55;17.37;;;15.37;;
70045;SDS011;57385;41.832;23.494;2022-09-03T02:38:16;18.47;;;14.93;;
70045;SDS011;57385;41.832;23.494;2022-09-03T02:38:36;19.13;;;14.20;;
70045;SDS011;57385;41.832;23.494;2022-09-03T02:38:56;21.15;;;14.77;;
70045;SDS011;57385;41.832;23.494;2022-09-03T02:39:15;22.05;;;15.13;;
70045;SDS011;57385;41.832;23.494;2022-09-03T02:39:35;18.30;;;14.57;;
70045;SDS011;57385;41.832;23.494;2022-09-03T02:39:54;17.30;;;14.85;;
70045;SDS011;57385;41.832;23.494;2022-09-03T02:40:14;17.30;;;14.73;;
70045;SDS011;57385;41.832;23.494;2022-09-03T02:40:33;19.92;;;14.82;;
70045;SDS011;57385;41.832;23.494;2022-09-03T02:40:53;19.63;;;15.33;;
70045;SDS011;57385;41.832;23.494;2022-09-03T02:41:13;18.08;;;14.52;;
70045;SDS011;57385;41.832;23.494;2022-09-03T02:41:32;15.25;;;13.70;;
70045;SDS011;57385;41.832;23.494;2022-09-03T02:41:53;17.70;;;14.52;;
70045;SDS011;57385;41.832;23.494;2022-09-03T02:42:15;18.98;;;15.18;;
70045;SDS011;57385;41.832;23.494;2022-09-03T02:42:34;18.13;;;15.17;;
70045;SDS011;57385;41.832;23.494;2022-09-03T02:42:54;20.20;;;15.40;;
70045;SDS011;57385;41.832;23.494;2022-09-03T02:43:15;18.60;;;15.57;;
70045;SDS011;57385;41.832;23.494;2022-09-03T02:43:49;17.35;;;14.63;;
70045;SDS011;57385;41.832;23.494;2022-09-03T02:44:20;16.90;;;14.30;;
70045;SDS011;57385;41.832;23.494;2022-09-03T02:44:49;17.08;;;14.73;;
70045;SDS011;57385;41.832;23.494;2022-09-03T02:45:23;20.00;;;15.68;;
70045;SDS011;57385;41.832;23.494;2022-09-03T02:45:47;17.88;;;15.00;;
70045;SDS011;57385;41.832;23.494;2022-09-03T02:46:11;19.20;;;15.45;;
70045;SDS011;57385;41.832;23.494;2022-09-03T02:46:37;19.02;;;15.45;;
70045;SDS011;57385;41.832;23.494;2022-09-03T02:47:00;19.45;;;15.55;;
70045;SDS011;57385;41.832;23.494;2022-09-03T02:47:22;16.92;;;15.13;;
70045;SDS011;57385;41.832;23.494;2022-09-03T02:47:47;17.67;;;15.05;;
70045;SDS011;57385;41.832;23.494;2022-09-03T02:48:10;17.05;;;14.55;;
70045;SDS011;57385;41.832;23.494;2022-09-03T02:48:29;16.70;;;14.77;;
70045;SDS011;57385;41.832;23.494;2022-09-03T02:48:48;18.02;;;15.02;;
70045;SDS011;57385;41.832;23.494;2022-09-03T02:49:08;19.70;;;15.23;;
70045;SDS011;57385;41.832;23.494;2022-09-03T02:49:28;19.98;;;14.82;;
70045;SDS011;57385;41.832;23.494;2022-09-03T02:49:48;16.05;;;14.13;;
70045;SDS011;57385;41.832;23.494;2022-09-03T02:50:07;16.63;;;14.82;;
70045;SDS011;57385;41.832;23.494;2022-09-03T02:50:27;16.30;;;14.57;;
70045;SDS011;57385;41.832;23.494;2022-09-03T02:50:47;16.27;;;14.53;;
70045;SDS011;57385;41.832;23.494;2022-09-03T02:51:06;18.05;;;15.02;;
70045;SDS011;57385;41.832;23.494;2022-09-03T02:51:26;18.13;;;15.30;;
70045;SDS011;57385;41.832;23.494;2022-09-03T02:51:49;17.58;;;14.55;;
70045;SDS011;57385;41.832;23.494;2022-09-03T02:52:09;18.03;;;14.73;;
70045;SDS011;57385;41.832;23.494;2022-09-03T02:52:28;18.63;;;15.20;;
70045;SDS011;57385;41.832;23.494;2022-09-03T02:52:48;17.58;;;15.43;;
70045;SDS011;57385;41.832;23.494;2022-09-03T02:53:07;17.27;;;15.10;;
70045;SDS011;57385;41.832;23.494;2022-09-03T02:53:27;20.48;;;15.23;;
70045;SDS011;57385;41.832;23.494;2022-09-03T02:53:46;20.25;;;15.00;;
70045;SDS011;57385;41.832;23.494;2022-09-03T02:54:06;18.27;;;15.00;;
70045;SDS011;57385;41.832;23.494;2022-09-03T02:54:26;17.63;;;14.77;;
70045;SDS011;57385;41.832;23.494;2022-09-03T02:54:46;18.30;;;15.07;;
70045;SDS011;57385;41.832;23.494;2022-09-03T02:55:05;18.17;;;14.88;;
70045;SDS011;57385;41.832;23.494;2022-09-03T02:55:25;17.17;;;15.27;;
70045;SDS011;57385;41.832;23.494;2022-09-03T02:55:45;17.70;;;15.75;;
70045;SDS011;57385;41.832;23.494;2022-09-03T02:56:04;19.48;;;15.25;;
70045;SDS011;57385;41.832;23.494;2022-09-03T02:56:24;17.67;;;15.02;;
70045;SDS011;57385;41.832;23.494;2022-09-03T02:56:43;17.03;;;15.13;;
70045;SDS011;57385;41.832;23.494;2022-09-03T02:57:03;17.20;;;15.40;;
70045;SDS011;57385;41.832;23.494;2022-09-03T02:57:22;18.83;;;15.33;;
70045;SDS011;57385;41.832;23.494;2022-09-03T02:57:42;18.93;;;14.73;;
70045;SDS011;57385;41.832;23.494;2022-09-03T02:58:01;19.23;;;15.47;;
70045;SDS011;57385;41.832;23.494;2022-09-03T02:58:20;20.30;;;16.00;;
70045;SDS011;57385;41.832;23.494;2022-09-03T02:58:40;18.47;;;15.27;;
70045;SDS011;57385;41.832;23.494;2022-09-03T02:59:02;17.83;;;15.77;;
70045;SDS011;57385;41.832;23.494;2022-09-03T02:59:22;19.73;;;16.13;;
70045;SDS011;57385;41.832;23.494;2022-09-03T02:59:42;19.47;;;15.93;;
70045;SDS011;57385;41.832;23.494;2022-09-03T03:00:02;20.50;;;15.85;;
70045;SDS011;57385;41.832;23.494;2022-09-03T03:00:22;22.95;;;16.27;;
70045;SDS011;57385;41.832;23.494;2022-09-03T03:00:41;21.05;;;16.05;;
70045;SDS011;57385;41.832;23.494;2022-09-03T03:01:01;22.30;;;16.50;;
70045;SDS011;57385;41.832;23.494;2022-09-03T03:01:20;22.13;;;16.33;;
70045;SDS011;57385;41.832;23.494;2022-09-03T03:01:40;20.75;;;16.23;;
70045;SDS011;57385;41.832;23.494;2022-09-03T03:02:00;22.00;;;17.30;;
70045;SDS011;57385;41.832;23.494;2022-09-03T03:02:20;20.10;;;17.10;;
70045;SDS011;57385;41.832;23.494;2022-09-03T03:02:39;19.48;;;16.40;;
70045;SDS011;57385;41.832;23.494;2022-09-03T03:02:58;22.83;;;16.80;;
70045;SDS011;57385;41.832;23.494;2022-09-03T03:03:18;21.92;;;16.83;;
70045;SDS011;57385;41.832;23.494;2022-09-03T03:03:38;20.98;;;16.65;;
70045;SDS011;57385;41.832;23.494;2022-09-03T03:03:57;25.93;;;20.17;;
70045;SDS011;57385;41.832;23.494;2022-09-03T03:04:17;33.22;;;26.13;;
70045;SDS011;57385;41.832;23.494;2022-09-03T03:04:36;34.73;;;28.73;;
70045;SDS011;57385;41.832;23.494;2022-09-03T03:04:56;35.85;;;28.95;;
70045;SDS011;57385;41.832;23.494;2022-09-03T03:05:17;37.80;;;30.90;;
70045;SDS011;57385;41.832;23.494;2022-09-03T03:05:46;39.65;;;31.80;;
70045;SDS011;57385;41.832;23.494;2022-09-03T03:06:07;40.00;;;30.67;;
70045;SDS011;57385;41.832;23.494;2022-09-03T03:06:28;34.15;;;27.88;;
70045;SDS011;57385;41.832;23.494;2022-09-03T03:06:47;32.47;;;25.88;;
70045;SDS011;57385;41.832;23.494;2022-09-03T03:07:07;30.50;;;25.57;;
70045;SDS011;57385;41.832;23.494;2022-09-03T03:07:27;27.10;;;23.60;;
70045;SDS011;57385;41.832;23.494;2022-09-03T03:07:49;25.70;;;21.10;;
70045;SDS011;57385;41.832;23.494;2022-09-03T03:08:09;22.98;;;20.45;;
70045;SDS011;57385;41.832;23.494;2022-09-03T03:08:29;23.33;;;20.88;;
70045;SDS011;57385;41.832;23.494;2022-09-03T03:08:49;24.08;;;20.77;;
70045;SDS011;57385;41.832;23.494;2022-09-03T03:09:08;23.27;;;20.30;;
70045;SDS011;57385;41.832;23.494;2022-09-03T03:09:28;24.83;;;19.43;;
70045;SDS011;57385;41.832;23.494;2022-09-03T03:09:47;23.17;;;17.97;;
70045;SDS011;57385;41.832;23.494;2022-09-03T03:10:07;19.90;;;17.38;;
70045;SDS011;57385;41.832;23.494;2022-09-03T03:10:26;21.23;;;17.67;;
70045;SDS011;57385;41.832;23.494;2022-09-03T03:10:46;22.03;;;17.77;;
70045;SDS011;57385;41.832;23.494;2022-09-03T03:11:06;20.33;;;18.10;;
70045;SDS011;57385;41.832;23.494;2022-09-03T03:11:25;19.97;;;17.83;;
70045;SDS011;57385;41.832;23.494;2022-09-03T03:11:45;19.92;;;17.33;;
70045;SDS011;57385;41.832;23.494;2022-09-03T03:12:04;20.07;;;17.60;;
70045;SDS011;57385;41.832;23.494;2022-09-03T03:12:24;19.33;;;17.08;;
70045;SDS011;57385;41.832;23.494;2022-09-03T03:12:43;20.83;;;17.00;;
70045;SDS011;57385;41.832;23.494;2022-09-03T03:13:03;20.98;;;16.15;;
70045;SDS011;57385;41.832;23.494;2022-09-03T03:13:22;17.50;;;15.70;;
70045;SDS011;57385;41.832;23.494;2022-09-03T03:13:43;20.63;;;16.10;;
70045;SDS011;57385;41.832;23.494;2022-09-03T03:14:05;18.80;;;16.27;;
70045;SDS011;57385;41.832;23.494;2022-09-03T03:14:24;18.25;;;16.25;;
70045;SDS011;57385;41.832;23.494;2022-09-03T03:14:44;22.40;;;16.13;;
70045;SDS011;57385;41.832;23.494;2022-09-03T03:15:03;21.98;;;15.65;;
70045;SDS011;57385;41.832;23.494;2022-09-03T03:15:23;18.97;;;15.93;;
70045;SDS011;57385;41.832;23.494;2022-09-03T03:15:43;20.60;;;15.90;;
70045;SDS011;57385;41.832;23.494;2022-09-03T03:16:03;22.65;;;16.52;;
70045;SDS011;57385;41.832;23.494;2022-09-03T03:16:23;22.65;;;16.65;;